Terminal Aerodrome Forecast
Issued by NWS

Home | Current Version | Previous Version | Text Only | Print | Product List | Glossary Off
Versions: 1 2 3 4 5 6 7 8 9 10 11 12 13

688
FTUS42 KTBW 032320
TAFPIE
TAF
KPIE 032320Z 0400/0424 25008KT P6SM SCT025 BKN200
     FM040600 21006KT P6SM VCSH SCT025 BKN100
     FM041100 22010KT 5SM TSRA BKN015 BKN025CB
     FM041700 28012G17KT 5SM TSRA SCT015 BKN020CB OVC035
     FM042000 30013G20KT P6SM VCSH BKN020=

USA.gov is the U.S. government's official web portal to all federal, state and local government web resources and services.